createdAt,value
2018-12-21T00:00:59.572Z,23.60
2018-12-21T00:03:49.721Z,28.17
2018-12-21T00:06:40.430Z,21.67
2018-12-21T00:09:31.322Z,21.53
2018-12-21T00:12:22.161Z,22.97
2018-12-21T00:15:12.774Z,21.60
2018-12-21T00:18:02.957Z,22.73
2018-12-21T00:20:52.931Z,20.77
2018-12-21T00:23:43.772Z,20.07
2018-12-21T00:26:34.674Z,21.50
2018-12-21T00:29:26.507Z,21.13
2018-12-21T00:32:21.158Z,22.80
2018-12-21T00:35:16.984Z,22.63
2018-12-21T00:38:12.597Z,23.80
2018-12-21T00:41:07.298Z,24.40
2018-12-21T00:44:18.106Z,20.90
2018-12-21T00:47:12.064Z,22.90
2018-12-21T00:50:02.280Z,21.90
2018-12-21T00:52:52.175Z,20.73
2018-12-21T00:55:42.959Z,21.47
2018-12-21T00:58:32.873Z,21.17
2018-12-21T01:01:23.814Z,22.27
2018-12-21T01:04:14.341Z,21.17
2018-12-21T01:07:04.570Z,20.13
2018-12-21T01:09:56.090Z,23.47
2018-12-21T01:12:45.844Z,23.00
2018-12-21T01:15:36.529Z,20.60
2018-12-21T01:18:26.568Z,21.83
2018-12-21T01:21:17.858Z,22.30
2018-12-21T01:24:08.506Z,23.83
2018-12-21T01:26:58.227Z,25.87
2018-12-21T01:29:48.072Z,23.03
2018-12-21T01:32:38.055Z,23.60
2018-12-21T01:35:28.937Z,24.67
2018-12-21T01:38:18.892Z,23.90
2018-12-21T01:41:09.282Z,22.97
2018-12-21T01:44:00.077Z,25.13
2018-12-21T01:46:50.812Z,23.53
2018-12-21T01:49:41.527Z,23.63
2018-12-21T01:52:31.483Z,24.50
2018-12-21T01:55:21.286Z,24.43
2018-12-21T01:58:11.230Z,26.83
2018-12-21T02:01:01.943Z,25.33
2018-12-21T02:03:51.687Z,24.37
2018-12-21T02:06:41.666Z,24.43
2018-12-21T02:09:31.437Z,23.70
2018-12-21T02:12:21.345Z,23.33
2018-12-21T02:15:12.176Z,24.23
2018-12-21T02:18:02.214Z,25.17
2018-12-21T02:20:52.215Z,24.23
2018-12-21T02:23:41.934Z,24.07
2018-12-21T02:26:31.746Z,25.13
2018-12-21T02:29:21.829Z,25.37
2018-12-21T02:32:11.683Z,26.67
2018-12-21T02:35:01.484Z,23.47
2018-12-21T02:37:51.451Z,22.90
2018-12-21T02:40:42.239Z,28.17
2018-12-21T02:43:32.144Z,24.37
2018-12-21T02:46:21.972Z,24.53
2018-12-21T02:49:11.803Z,23.30
2018-12-21T02:52:05.751Z,23.13
2018-12-21T02:54:54.458Z,24.77
2018-12-21T02:57:44.391Z,25.50
2018-12-21T03:00:34.270Z,25.47
2018-12-21T03:03:24.360Z,23.83
2018-12-21T03:06:15.084Z,22.83
2018-12-21T03:09:07.940Z,23.83
2018-12-21T03:11:58.139Z,25.33
2018-12-21T03:14:47.930Z,22.90
2018-12-21T03:17:37.887Z,24.57
2018-12-21T03:20:28.754Z,22.20
2018-12-21T03:23:19.482Z,22.20
2018-12-21T03:26:09.298Z,24.20
2018-12-21T03:28:59.125Z,23.60
2018-12-21T03:31:49.104Z,24.50
2018-12-21T03:34:39.798Z,23.13
2018-12-21T03:37:29.770Z,24.37
2018-12-21T03:40:19.410Z,22.50
2018-12-21T03:43:09.474Z,25.50
2018-12-21T03:46:00.232Z,23.97
2018-12-21T03:48:50.162Z,25.07
2018-12-21T03:51:40.071Z,23.30
2018-12-21T03:54:30.227Z,23.37
2018-12-21T03:57:21.068Z,25.27
2018-12-21T04:00:11.656Z,22.50
2018-12-21T04:03:01.800Z,22.63
2018-12-21T04:05:51.503Z,24.43
2018-12-21T04:08:41.601Z,21.30
2018-12-21T04:11:31.336Z,22.33
2018-12-21T04:14:21.179Z,24.70
2018-12-21T04:17:11.480Z,24.00
2018-12-21T04:20:01.308Z,23.57
2018-12-21T04:22:51.033Z,25.10
2018-12-21T04:25:41.831Z,22.67
2018-12-21T04:28:33.003Z,25.23
2018-12-21T04:31:23.667Z,23.30
2018-12-21T04:34:13.593Z,23.87
2018-12-21T04:37:03.513Z,21.30
2018-12-21T04:39:53.445Z,22.23
2018-12-21T04:42:43.088Z,21.77
2018-12-21T04:45:33.306Z,20.57
2018-12-21T04:48:23.277Z,22.03
2018-12-21T04:51:13.182Z,22.40
2018-12-21T04:54:03.079Z,21.13
2018-12-21T04:56:53.295Z,22.57
2018-12-21T04:59:43.064Z,21.27
2018-12-21T05:02:32.749Z,23.03
2018-12-21T05:05:22.914Z,20.90
2018-12-21T05:08:13.695Z,22.07
2018-12-21T05:11:04.366Z,22.10
2018-12-21T05:13:55.526Z,23.03
2018-12-21T05:16:46.763Z,21.17
2018-12-21T05:19:36.844Z,21.87
2018-12-21T05:22:27.390Z,20.63
2018-12-21T05:25:17.206Z,21.50
2018-12-21T05:28:07.233Z,20.70
2018-12-21T05:30:57.073Z,20.27
2018-12-21T05:33:47.715Z,23.07
2018-12-21T05:36:37.697Z,24.27
2018-12-21T05:39:27.452Z,22.63
2018-12-21T05:42:17.403Z,20.50
2018-12-21T05:45:07.438Z,20.63
2018-12-21T05:47:57.211Z,21.83
2018-12-21T05:50:47.040Z,24.43
2018-12-21T05:53:37.288Z,21.30
2018-12-21T05:56:27.200Z,22.13
2018-12-21T05:59:17.326Z,21.83
2018-12-21T06:02:07.014Z,21.93
2018-12-21T06:04:57.067Z,18.97
2018-12-21T06:07:47.789Z,22.10
2018-12-21T06:10:37.998Z,22.83
2018-12-21T06:13:27.720Z,23.00
2018-12-21T06:16:17.791Z,22.27
2018-12-21T06:19:07.619Z,22.23
2018-12-21T06:21:58.448Z,19.37
2018-12-21T06:24:49.188Z,21.37
2018-12-21T06:27:39.375Z,22.10
2018-12-21T06:30:30.039Z,21.00
2018-12-21T06:33:19.846Z,21.17
2018-12-21T06:36:14.124Z,20.60
2018-12-21T06:39:09.214Z,21.43
2018-12-21T06:42:01.064Z,21.23
2018-12-21T06:44:51.364Z,20.77
2018-12-21T06:47:41.887Z,21.40
2018-12-21T06:50:31.643Z,22.10
2018-12-21T06:53:21.545Z,17.30
2018-12-21T06:56:11.599Z,19.83
2018-12-21T06:59:01.319Z,19.53
2018-12-21T07:01:51.318Z,21.53
2018-12-21T07:04:41.058Z,19.33
2018-12-21T07:07:30.852Z,20.37
2018-12-21T07:10:20.571Z,18.97
2018-12-21T07:13:10.730Z,21.77
2018-12-21T07:16:00.427Z,20.50
2018-12-21T07:18:50.299Z,20.40
2018-12-21T07:21:40.286Z,21.70
2018-12-21T07:24:30.860Z,21.07
2018-12-21T07:27:21.195Z,22.57
2018-12-21T07:30:12.648Z,20.03
2018-12-21T07:33:03.254Z,24.93
2018-12-21T07:35:54.051Z,21.60
2018-12-21T07:38:44.851Z,19.77
2018-12-21T07:41:35.769Z,20.40
2018-12-21T07:44:25.760Z,22.07
2018-12-21T07:47:15.796Z,20.70
2018-12-21T07:50:06.324Z,18.97
2018-12-21T07:52:56.558Z,19.83
2018-12-21T07:55:47.277Z,18.57
2018-12-21T07:58:37.153Z,20.03
2018-12-21T08:01:28.106Z,18.93
2018-12-21T08:04:19.151Z,17.83
2018-12-21T08:07:09.940Z,20.67
2018-12-21T08:09:59.806Z,21.93
2018-12-21T08:12:49.675Z,22.13
2018-12-21T08:15:39.413Z,23.13
2018-12-21T08:18:30.266Z,22.43
2018-12-21T08:21:21.149Z,23.77
2018-12-21T08:24:11.771Z,26.53
2018-12-21T08:27:01.709Z,25.93
2018-12-21T08:29:51.474Z,26.80
2018-12-21T08:32:42.312Z,24.77
2018-12-21T08:35:32.147Z,25.00
2018-12-21T08:38:22.407Z,26.90
2018-12-21T08:41:12.886Z,24.83
2018-12-21T08:44:03.666Z,27.77
2018-12-21T08:46:53.750Z,26.00
2018-12-21T08:49:43.783Z,32.07
2018-12-21T08:52:34.337Z,28.17
2018-12-21T08:55:24.192Z,30.70
2018-12-21T08:58:14.449Z,31.27
2018-12-21T09:01:05.082Z,34.73
2018-12-21T09:03:55.730Z,30.37
2018-12-21T09:06:45.718Z,36.43
2018-12-21T09:09:35.685Z,35.60
2018-12-21T09:12:26.018Z,35.53
2018-12-21T09:15:19.066Z,38.73
2018-12-21T09:18:09.730Z,39.63
2018-12-21T09:20:59.575Z,41.10
2018-12-21T09:23:50.492Z,38.87
2018-12-21T09:26:40.270Z,43.20
2018-12-21T09:29:30.337Z,39.40
2018-12-21T09:32:20.048Z,37.40
2018-12-21T09:35:09.866Z,39.83
2018-12-21T09:38:01.171Z,40.80
2018-12-21T09:40:51.942Z,42.00
2018-12-21T09:43:41.736Z,39.23
2018-12-21T09:46:31.740Z,39.17
2018-12-21T09:49:22.515Z,37.27
2018-12-21T09:52:13.107Z,40.43
2018-12-21T09:55:03.306Z,38.93
2018-12-21T09:57:53.136Z,39.57
2018-12-21T10:00:42.889Z,39.53
2018-12-21T10:03:32.814Z,36.37
2018-12-21T10:06:22.716Z,39.63
2018-12-21T10:09:12.617Z,39.47
2018-12-21T10:12:02.826Z,37.40
2018-12-21T10:14:52.879Z,39.77
2018-12-21T10:17:42.525Z,40.30
2018-12-21T10:20:32.802Z,38.20
2018-12-21T10:23:22.598Z,36.63
2018-12-21T10:26:12.618Z,33.57
2018-12-21T10:29:03.476Z,32.43
2018-12-21T10:31:54.382Z,32.43
2018-12-21T10:34:44.266Z,35.20
2018-12-21T10:37:35.314Z,33.43
2018-12-21T10:40:25.297Z,42.47
2018-12-21T10:43:16.121Z,37.77
2018-12-21T10:46:05.957Z,35.83
2018-12-21T10:48:56.041Z,33.70
2018-12-21T10:51:46.017Z,33.03
2018-12-21T10:54:37.095Z,33.80
2018-12-21T10:57:26.997Z,35.43
2018-12-21T11:00:17.090Z,36.23
2018-12-21T11:03:07.793Z,32.83
2018-12-21T11:05:57.741Z,34.00
2018-12-21T11:08:47.796Z,30.67
2018-12-21T11:11:38.083Z,32.13
2018-12-21T11:14:29.731Z,33.10
2018-12-21T11:17:20.067Z,31.13
2018-12-21T11:20:10.821Z,28.40
2018-12-21T11:23:01.690Z,31.80
2018-12-21T11:25:51.816Z,27.17
2018-12-21T11:28:42.627Z,30.57
2018-12-21T11:31:32.431Z,28.30
2018-12-21T11:34:22.468Z,28.67
2018-12-21T11:37:13.214Z,29.27
2018-12-21T11:40:04.350Z,28.07
2018-12-21T11:42:54.550Z,28.00
2018-12-21T11:45:45.558Z,27.43
2018-12-21T11:48:35.370Z,32.30
2018-12-21T11:51:26.228Z,31.13
2018-12-21T11:54:16.055Z,27.77
2018-12-21T11:57:06.248Z,31.50
2018-12-21T11:59:56.277Z,27.60
2018-12-21T12:02:47.198Z,27.03
2018-12-21T12:05:37.502Z,25.73
2018-12-21T12:08:27.424Z,34.17
2018-12-21T12:11:17.247Z,25.60
2018-12-21T12:14:08.919Z,27.77
2018-12-21T12:16:58.880Z,25.10
2018-12-21T12:19:49.950Z,26.93
2018-12-21T12:22:39.777Z,25.93
2018-12-21T12:25:29.840Z,27.37
2018-12-21T12:28:19.590Z,26.20
2018-12-21T12:31:09.682Z,26.53
2018-12-21T12:33:59.495Z,26.93
2018-12-21T12:36:49.439Z,27.77
2018-12-21T12:39:39.410Z,23.10
2018-12-21T12:42:30.351Z,24.37
2018-12-21T12:45:20.292Z,24.80
2018-12-21T12:48:10.532Z,24.53
2018-12-21T12:51:00.499Z,24.47
2018-12-21T12:53:50.277Z,22.97
2018-12-21T12:56:40.245Z,26.53
2018-12-21T12:59:30.382Z,29.30
2018-12-21T13:02:21.162Z,24.23
2018-12-21T13:05:11.199Z,25.43
2018-12-21T13:08:01.136Z,25.57
2018-12-21T13:10:52.114Z,28.07
2018-12-21T13:13:41.967Z,27.03
2018-12-21T13:16:33.902Z,25.47
2018-12-21T13:19:23.803Z,26.93
2018-12-21T13:22:13.798Z,26.10
2018-12-21T13:25:11.248Z,27.57
2018-12-21T13:27:55.793Z,27.40
2018-12-21T13:30:46.570Z,26.07
2018-12-21T13:33:36.567Z,25.77
2018-12-21T13:36:26.246Z,25.97
2018-12-21T13:39:16.566Z,26.60
2018-12-21T13:42:06.364Z,24.93
2018-12-21T13:44:57.336Z,24.67
2018-12-21T13:47:48.105Z,29.00
2018-12-21T13:50:38.067Z,28.30
2018-12-21T13:53:27.962Z,27.27
2018-12-21T13:56:17.920Z,24.40
2018-12-21T13:59:08.573Z,26.77
2018-12-21T14:01:58.492Z,26.87
2018-12-21T14:04:48.364Z,24.87
2018-12-21T14:07:38.416Z,25.20
2018-12-21T14:10:29.292Z,25.20
2018-12-21T14:13:19.978Z,26.53
2018-12-21T14:16:09.975Z,26.83
2018-12-21T14:19:00.175Z,27.10
2018-12-21T14:21:49.873Z,25.13
2018-12-21T14:24:40.194Z,29.53
2018-12-21T14:27:30.920Z,28.90
2018-12-21T14:30:20.873Z,27.70
2018-12-21T14:33:10.751Z,27.10
2018-12-21T14:36:00.698Z,27.67
2018-12-21T14:38:50.590Z,27.77
2018-12-21T14:41:40.703Z,27.17
2018-12-21T14:44:30.545Z,44.73
2018-12-21T14:47:20.685Z,26.80
2018-12-21T14:50:12.247Z,24.67
2018-12-21T14:53:02.519Z,25.10
2018-12-21T14:55:52.406Z,23.40
2018-12-21T14:58:42.357Z,22.80
2018-12-21T15:01:32.418Z,24.70
2018-12-21T15:04:22.430Z,23.50
2018-12-21T15:07:12.602Z,23.63
2018-12-21T15:10:03.196Z,25.77
2018-12-21T15:12:52.917Z,24.13
2018-12-21T15:15:43.041Z,29.33
2018-12-21T15:18:33.019Z,23.83
2018-12-21T15:21:24.098Z,23.73
2018-12-21T15:24:14.015Z,23.87
2018-12-21T15:27:04.058Z,25.67
2018-12-21T15:29:53.674Z,26.00
2018-12-21T15:32:43.988Z,24.27
2018-12-21T15:35:33.592Z,22.60
2018-12-21T15:38:23.520Z,24.03
2018-12-21T15:41:13.419Z,23.50
2018-12-21T15:44:03.460Z,24.50
2018-12-21T15:46:53.184Z,24.40
2018-12-21T15:49:45.005Z,24.97
2018-12-21T15:52:35.033Z,25.27
2018-12-21T15:55:24.910Z,22.13
2018-12-21T15:58:15.536Z,20.63
2018-12-21T16:01:05.714Z,24.23
2018-12-21T16:03:56.594Z,21.80
2018-12-21T16:06:46.383Z,23.40
2018-12-21T16:09:37.239Z,24.37
2018-12-21T16:12:28.124Z,20.90
2018-12-21T16:15:18.816Z,23.40
2018-12-21T16:18:08.888Z,23.17
2018-12-21T16:20:58.533Z,25.57
2018-12-21T16:23:48.800Z,23.57
2018-12-21T16:26:40.591Z,24.20
2018-12-21T16:29:30.446Z,24.17
2018-12-21T16:32:20.577Z,25.53
2018-12-21T16:35:10.384Z,22.23
2018-12-21T16:38:00.224Z,22.93
2018-12-21T16:40:52.292Z,25.33
2018-12-21T16:43:41.925Z,26.43
2018-12-21T16:46:32.394Z,23.50
2018-12-21T16:49:22.841Z,27.80
2018-12-21T16:52:12.665Z,25.00
2018-12-21T16:55:02.523Z,25.30
2018-12-21T16:57:52.556Z,26.73
2018-12-21T17:00:43.288Z,25.57
2018-12-21T17:03:33.238Z,28.37
2018-12-21T17:06:24.116Z,28.80
2018-12-21T17:09:14.056Z,26.73
2018-12-21T17:12:04.210Z,24.67
2018-12-21T17:14:54.833Z,26.70
2018-12-21T17:17:44.534Z,26.47
2018-12-21T17:20:34.328Z,27.33
2018-12-21T17:23:24.229Z,23.73
2018-12-21T17:26:21.272Z,24.50
2018-12-21T17:29:06.471Z,29.97
2018-12-21T17:31:56.462Z,25.70
2018-12-21T17:34:46.426Z,23.63
2018-12-21T17:37:36.443Z,24.60
2018-12-21T17:40:26.240Z,26.10
2018-12-21T17:43:16.056Z,23.80
2018-12-21T17:46:05.889Z,24.13
2018-12-21T17:48:55.726Z,22.53
2018-12-21T17:51:45.559Z,24.20
2018-12-21T17:54:36.220Z,24.97
2018-12-21T17:57:26.388Z,23.17
2018-12-21T18:00:21.551Z,20.90
2018-12-21T18:03:20.386Z,24.23
2018-12-21T18:06:10.520Z,22.40
2018-12-21T18:09:00.340Z,22.40
2018-12-21T18:11:57.157Z,22.43
2018-12-21T18:14:44.184Z,21.67
2018-12-21T18:17:35.047Z,22.70
2018-12-21T18:20:25.983Z,22.70
2018-12-21T18:23:17.072Z,27.47
2018-12-21T18:26:07.686Z,22.13
2018-12-21T18:28:57.739Z,23.27
2018-12-21T18:32:05.842Z,21.30
2018-12-21T18:34:58.363Z,21.67
2018-12-21T18:38:00.262Z,24.37
2018-12-21T18:40:51.128Z,22.43
2018-12-21T18:43:42.065Z,22.50
2018-12-21T18:46:32.039Z,22.10
2018-12-21T18:49:22.861Z,24.03
2018-12-21T18:52:12.954Z,23.00
2018-12-21T18:55:02.706Z,26.57
2018-12-21T18:57:52.454Z,22.53
2018-12-21T19:00:43.385Z,23.23
2018-12-21T19:03:33.331Z,23.77
2018-12-21T19:06:23.127Z,22.53
2018-12-21T19:09:13.282Z,25.93
2018-12-21T19:12:03.206Z,24.73
2018-12-21T19:14:53.869Z,25.00
2018-12-21T19:17:43.715Z,25.80
2018-12-21T19:20:33.549Z,24.57
2018-12-21T19:23:23.483Z,25.67
2018-12-21T19:26:13.571Z,25.40
2018-12-21T19:29:03.628Z,23.90
2018-12-21T19:31:53.634Z,24.23
2018-12-21T19:34:43.468Z,22.97
2018-12-21T19:37:33.539Z,24.97
2018-12-21T19:40:23.454Z,25.53
2018-12-21T19:43:13.318Z,22.07
2018-12-21T19:46:03.314Z,26.67
2018-12-21T19:48:53.492Z,23.20
2018-12-21T19:51:44.257Z,26.53
2018-12-21T19:54:35.151Z,27.63
2018-12-21T19:57:24.902Z,27.13
2018-12-21T20:00:15.833Z,26.63
2018-12-21T20:03:05.878Z,27.40
2018-12-21T20:05:56.932Z,30.73
2018-12-21T20:08:47.610Z,27.53
2018-12-21T20:11:38.123Z,27.17
2018-12-21T20:14:28.624Z,28.07
2018-12-21T20:17:19.313Z,27.50
2018-12-21T20:20:10.737Z,29.10
2018-12-21T20:23:01.082Z,28.33
2018-12-21T20:25:52.022Z,29.37
2018-12-21T20:28:41.982Z,28.10
2018-12-21T20:31:31.710Z,27.37
2018-12-21T20:34:21.694Z,28.37
2018-12-21T20:37:11.594Z,31.77
2018-12-21T20:40:01.708Z,30.73
2018-12-21T20:42:51.658Z,29.00
2018-12-21T20:45:42.609Z,28.90
2018-12-21T20:48:32.573Z,28.00
2018-12-21T20:51:23.491Z,26.23
2018-12-21T20:54:14.521Z,26.30
2018-12-21T20:57:05.976Z,26.93
2018-12-21T20:59:56.387Z,26.93
2018-12-21T21:02:48.346Z,27.23
2018-12-21T21:05:39.003Z,23.77
2018-12-21T21:08:29.058Z,27.10
2018-12-21T21:11:24.299Z,27.20
2018-12-21T21:14:12.597Z,27.33
2018-12-21T21:17:02.977Z,27.63
2018-12-21T21:19:52.873Z,25.80
2018-12-21T21:22:42.796Z,26.17
2018-12-21T21:25:32.767Z,27.07
2018-12-21T21:28:22.870Z,28.73
2018-12-21T21:31:13.915Z,26.43
2018-12-21T21:34:03.855Z,27.73
2018-12-21T21:36:53.655Z,26.73
2018-12-21T21:39:43.620Z,26.97
2018-12-21T21:42:33.608Z,26.97
2018-12-21T21:45:23.654Z,26.07
2018-12-21T21:48:13.935Z,26.33
2018-12-21T21:51:04.922Z,27.47
2018-12-21T21:53:55.646Z,27.17
2018-12-21T21:56:45.519Z,26.57
2018-12-21T21:59:35.869Z,24.93
2018-12-21T22:02:25.820Z,26.27
2018-12-21T22:05:16.671Z,27.90
2018-12-21T22:08:07.463Z,26.97
2018-12-21T22:11:02.084Z,24.43
2018-12-21T22:13:51.438Z,28.07
2018-12-21T22:16:41.196Z,25.70
2018-12-21T22:19:31.097Z,24.90
2018-12-21T22:22:21.315Z,32.90
2018-12-21T22:25:11.161Z,27.47
2018-12-21T22:28:01.423Z,31.33
2018-12-21T22:30:51.766Z,32.27
2018-12-21T22:33:41.634Z,34.33
2018-12-21T22:36:31.638Z,35.20
2018-12-21T22:39:21.811Z,32.53
2018-12-21T22:42:11.570Z,32.37
2018-12-21T22:45:01.663Z,29.80
2018-12-21T22:47:51.451Z,31.07
2018-12-21T22:50:41.625Z,30.83
2018-12-21T22:53:32.339Z,28.90
2018-12-21T22:56:22.314Z,32.00
2018-12-21T22:59:12.166Z,30.83
2018-12-21T23:02:02.176Z,29.60
2018-12-21T23:04:52.933Z,29.53
2018-12-21T23:07:42.943Z,28.83
2018-12-21T23:10:33.848Z,28.97
2018-12-21T23:13:23.827Z,30.43
2018-12-21T23:16:13.689Z,32.07
2018-12-21T23:19:03.647Z,32.97
2018-12-21T23:21:53.690Z,31.73
2018-12-21T23:24:43.908Z,33.23
2018-12-21T23:27:34.535Z,35.40
2018-12-21T23:30:24.344Z,38.73
2018-12-21T23:33:14.191Z,38.60
2018-12-21T23:36:04.200Z,40.47
2018-12-21T23:38:54.970Z,36.13
2018-12-21T23:41:45.179Z,39.97
2018-12-21T23:44:34.890Z,39.67
2018-12-21T23:47:25.846Z,37.47
2018-12-21T23:50:15.837Z,41.60
2018-12-21T23:53:05.811Z,39.97
2018-12-21T23:55:55.584Z,41.77
2018-12-21T23:58:45.633Z,40.37
